Time;durP1;ratioP1;P1;durP2;ratioP2;P2;SDS_P1;SDS_P2;PMS_P1;PMS_P2;Temp;Humidity;BMP_temperature;BMP_pressure;BME280_temperature;BME280_humidity;BME280_pressure;Samples;Min_cycle;Max_cycle;Signal;HPM_P1;HPM_P2
2022/04/20 05:00:17;;;;;;;9.47;5.40;;;8.20;97.20;;;;;;1748431;28;20649;-77
2022/04/20 05:01:07;;;;;;;5.72;5.22;;;8.30;97.20;;;;;;1748645;28;20203;-75
2022/04/20 05:01:59;;;;;;;5.97;5.17;;;8.30;97.20;;;;;;1748453;28;20756;-77
2022/04/20 05:02:50;;;;;;;5.88;5.35;;;8.30;97.20;;;;;;1748624;28;20460;-77
2022/04/20 05:03:42;;;;;;;5.57;5.17;;;8.30;97.20;;;;;;1748670;28;20230;-77
2022/04/20 05:04:33;;;;;;;5.90;5.30;;;8.40;97.20;;;;;;1748548;28;20206;-76
2022/04/20 05:05:25;;;;;;;5.30;4.80;;;8.40;97.20;;;;;;1748263;28;20190;-77
2022/04/20 05:06:16;;;;;;;5.72;5.28;;;8.40;97.20;;;;;;1748224;28;20229;-75
2022/04/20 05:07:08;;;;;;;15.33;4.70;;;8.40;97.20;;;;;;1748516;28;20204;-76
2022/04/20 05:07:58;;;;;;;5.40;4.90;;;8.40;97.20;;;;;;1748405;28;20582;-77
2022/04/20 05:08:50;;;;;;;10.13;4.70;;;8.40;97.20;;;;;;1748117;28;20212;-77
2022/04/20 05:09:44;;;;;;;6.80;5.38;;;8.50;97.20;;;;;;1748523;28;20611;-77
2022/04/20 05:10:35;;;;;;;7.07;4.68;;;8.50;97.20;;;;;;1748789;28;20238;-76
2022/04/20 05:11:26;;;;;;;5.40;4.50;;;8.60;97.20;;;;;;1748814;28;20217;-77
2022/04/20 05:12:19;;;;;;;7.03;4.53;;;8.60;97.20;;;;;;1748684;28;20206;-77
2022/04/20 05:13:10;;;;;;;6.35;5.38;;;8.60;97.20;;;;;;1748934;28;20202;-77
2022/04/20 05:14:02;;;;;;;7.30;4.57;;;8.60;97.20;;;;;;1748846;28;20244;-77
2022/04/20 05:14:52;;;;;;;7.38;4.45;;;8.70;97.20;;;;;;1748489;28;20248;-77
2022/04/20 05:15:45;;;;;;;4.90;4.27;;;8.70;97.20;;;;;;1748868;28;20202;-77
2022/04/20 05:16:36;;;;;;;9.43;4.28;;;8.70;97.20;;;;;;1749112;28;20194;-76
2022/04/20 05:17:28;;;;;;;4.73;4.20;;;8.70;97.20;;;;;;1749237;28;20193;-77
2022/04/20 05:18:19;;;;;;;8.13;4.25;;;8.80;97.20;;;;;;1752450;28;20222;-77
2022/04/20 05:19:11;;;;;;;9.70;4.50;;;8.80;97.20;;;;;;1753886;28;20202;-78
2022/04/20 05:20:02;;;;;;;7.00;4.50;;;8.80;97.20;;;;;;1752003;28;20637;-77
2022/04/20 05:20:54;;;;;;;4.55;4.10;;;8.90;97.20;;;;;;1750964;28;20222;-77
2022/04/20 05:21:44;;;;;;;6.47;4.32;;;8.90;97.20;;;;;;1751995;28;20217;-77
2022/04/20 05:22:37;;;;;;;5.03;4.07;;;8.90;97.20;;;;;;1752061;28;20199;-77
2022/04/20 05:23:28;;;;;;;5.15;4.40;;;8.90;97.20;;;;;;1749723;28;20209;-77
2022/04/20 05:24:20;;;;;;;6.10;4.77;;;9.00;97.20;;;;;;1750820;28;20218;-77
2022/04/20 05:25:10;;;;;;;5.32;3.90;;;9.00;97.20;;;;;;1750779;28;20194;-78
2022/04/20 05:26:02;;;;;;;7.90;4.40;;;9.00;97.20;;;;;;1751075;28;20202;-78
2022/04/20 05:26:53;;;;;;;5.63;4.35;;;9.00;97.20;;;;;;1751037;28;20213;-78
2022/04/20 05:27:45;;;;;;;6.87;4.33;;;9.00;97.20;;;;;;1751106;28;20205;-78
2022/04/20 05:28:36;;;;;;;6.85;4.57;;;9.10;97.20;;;;;;1750928;28;20932;-78
2022/04/20 05:29:28;;;;;;;8.00;4.80;;;9.10;97.20;;;;;;1748892;28;20665;-78
2022/04/20 05:30:20;;;;;;;5.75;4.50;;;9.10;97.20;;;;;;1748132;28;20230;-79
2022/04/20 05:31:13;;;;;;;4.55;4.15;;;9.10;97.20;;;;;;1749609;28;20202;-77
2022/04/20 05:32:05;;;;;;;4.90;3.70;;;9.10;97.20;;;;;;1749382;28;20226;-77
2022/04/20 05:32:57;;;;;;;5.15;4.30;;;9.20;97.20;;;;;;1749408;28;20233;-78
2022/04/20 05:33:47;;;;;;;14.65;4.55;;;9.20;97.20;;;;;;1749620;28;20205;-77
2022/04/20 05:34:39;;;;;;;6.13;4.10;;;9.20;97.20;;;;;;1749782;28;20685;-77
2022/04/20 05:35:30;;;;;;;5.15;4.35;;;9.20;97.20;;;;;;1749455;28;20194;-77
2022/04/20 05:36:22;;;;;;;5.20;4.23;;;9.30;97.20;;;;;;1749535;28;20195;-76
2022/04/20 05:42:05;;;;;;;5.22;4.40;;;9.40;97.20;;;;;;1735113;28;20203;-78
2022/04/20 05:42:56;;;;;;;5.80;3.95;;;9.40;97.20;;;;;;1735525;28;20200;-78
2022/04/20 05:43:48;;;;;;;4.57;4.03;;;9.50;97.20;;;;;;1735647;28;20196;-77
2022/04/20 05:44:38;;;;;;;5.10;4.32;;;9.50;97.20;;;;;;1734999;28;20766;-78
2022/04/20 05:45:30;;;;;;;4.50;4.20;;;9.50;97.20;;;;;;1734259;28;20204;-77
2022/04/20 05:46:22;;;;;;;6.60;4.15;;;9.50;97.20;;;;;;1732056;28;20315;-76
2022/04/20 05:47:14;;;;;;;4.85;4.35;;;9.60;97.20;;;;;;1733013;28;20291;-76
2022/04/20 05:48:05;;;;;;;6.32;4.90;;;9.60;97.20;;;;;;1747753;28;20198;-76
2022/04/20 05:48:56;;;;;;;4.90;3.80;;;9.60;97.20;;;;;;1754384;28;20284;-76
2022/04/20 05:49:48;;;;;;;4.47;4.10;;;9.60;97.20;;;;;;1748151;28;20679;-76
2022/04/20 05:50:39;;;;;;;4.60;4.13;;;9.70;97.20;;;;;;1741537;28;20215;-77
2022/04/20 05:51:30;;;;;;;4.70;4.30;;;9.70;97.20;;;;;;1748120;28;20202;-76
2022/04/20 05:52:22;;;;;;;4.30;3.97;;;9.70;97.20;;;;;;1746119;28;20202;-77
2022/04/20 05:53:13;;;;;;;5.93;4.13;;;9.70;97.20;;;;;;1741286;28;20449;-76
2022/04/20 05:54:04;;;;;;;4.63;4.23;;;9.70;97.20;;;;;;1741560;28;20205;-76
2022/04/20 05:54:57;;;;;;;5.45;4.68;;;9.70;97.20;;;;;;1742547;28;20279;-77
2022/04/20 05:55:49;;;;;;;4.35;3.97;;;9.80;97.20;;;;;;1748295;28;20226;-76
2022/04/20 05:56:40;;;;;;;3.83;3.53;;;9.80;97.20;;;;;;1748680;28;20190;-76
2022/04/20 05:57:33;;;;;;;4.83;4.17;;;9.80;97.20;;;;;;1749765;28;20722;-77
2022/04/20 05:58:24;;;;;;;4.40;4.00;;;9.80;97.20;;;;;;1749395;28;20198;-76
2022/04/20 05:59:15;;;;;;;4.40;4.00;;;9.80;97.20;;;;;;1749538;28;20656;-77
2022/04/20 06:00:07;;;;;;;6.80;5.00;;;9.90;97.20;;;;;;1749809;28;20942;-76
2022/04/20 06:00:59;;;;;;;4.22;3.85;;;9.90;97.20;;;;;;1749535;28;20261;-77
2022/04/20 06:01:51;;;;;;;4.22;3.83;;;9.90;97.20;;;;;;1749874;28;20206;-76
2022/04/20 06:02:43;;;;;;;4.55;4.15;;;9.90;97.20;;;;;;1749646;28;20243;-77
2022/04/20 06:03:34;;;;;;;4.55;3.90;;;9.90;97.20;;;;;;1749690;28;20210;-76
2022/04/20 06:04:28;;;;;;;5.00;4.40;;;10.00;97.20;;;;;;1748382;28;20201;-77
2022/04/20 06:05:20;;;;;;;4.30;3.92;;;10.00;97.20;;;;;;1746675;28;20201;-77
2022/04/20 06:06:12;;;;;;;5.47;4.53;;;10.00;97.20;;;;;;1749611;28;20198;-77
2022/04/20 06:07:03;;;;;;;7.07;4.20;;;10.00;97.20;;;;;;1749359;28;20209;-77
2022/04/20 06:07:55;;;;;;;4.47;3.80;;;10.00;97.20;;;;;;1749649;28;20224;-77
2022/04/20 06:08:47;;;;;;;4.72;4.30;;;10.00;97.20;;;;;;1749163;28;20613;-76
2022/04/20 06:09:38;;;;;;;4.10;3.70;;;10.00;97.20;;;;;;1749480;28;20288;-76
2022/04/20 06:10:32;;;;;;;4.10;3.80;;;10.10;97.20;;;;;;1749446;28;20688;-77
2022/04/20 06:11:24;;;;;;;4.50;3.97;;;10.10;97.20;;;;;;1749666;28;20247;-77
2022/04/20 06:12:15;;;;;;;4.25;3.95;;;10.10;97.20;;;;;;1749342;28;20240;-77
2022/04/20 06:13:06;;;;;;;4.90;4.23;;;10.10;97.20;;;;;;1749728;28;20198;-77
2022/04/20 06:13:57;;;;;;;4.70;4.20;;;10.20;97.20;;;;;;1749694;28;20210;-77
2022/04/20 06:14:49;;;;;;;4.80;4.40;;;10.20;97.20;;;;;;1749649;28;20935;-77
2022/04/20 06:15:40;;;;;;;4.15;3.75;;;10.20;97.20;;;;;;1749427;28;20495;-77
2022/04/20 06:16:31;;;;;;;4.10;3.80;;;10.20;97.20;;;;;;1749722;28;20190;-76
2022/04/20 06:17:23;;;;;;;4.53;4.13;;;10.30;97.20;;;;;;1749473;28;20237;-76
2022/04/20 06:18:15;;;;;;;4.13;3.83;;;10.30;97.20;;;;;;1749210;28;20198;-77
2022/04/20 06:19:07;;;;;;;4.85;4.50;;;10.30;97.20;;;;;;1749529;28;20229;-76
2022/04/20 06:19:59;;;;;;;4.07;3.78;;;10.30;97.20;;;;;;1749536;28;20202;-77
2022/04/20 06:20:50;;;;;;;4.00;3.70;;;10.30;97.20;;;;;;1749498;28;20234;-77
2022/04/20 06:21:41;;;;;;;5.60;4.40;;;10.40;97.20;;;;;;1749614;28;20502;-77
2022/04/20 06:22:32;;;;;;;4.25;3.90;;;10.40;97.20;;;;;;1749506;28;20209;-76
2022/04/20 06:23:24;;;;;;;4.70;4.20;;;10.40;97.20;;;;;;1749491;28;20278;-77
2022/04/20 06:24:15;;;;;;;5.53;4.25;;;10.40;97.20;;;;;;1749693;28;20690;-76
2022/04/20 06:25:08;;;;;;;4.50;4.10;;;10.40;97.20;;;;;;1749266;28;20207;-76
2022/04/20 06:26:01;;;;;;;4.38;3.97;;;10.40;97.20;;;;;;1749337;28;20198;-76
2022/04/20 06:26:52;;;;;;;4.82;4.45;;;10.40;97.20;;;;;;1749509;28;20270;-76
2022/04/20 06:27:43;;;;;;;6.00;4.53;;;10.40;97.20;;;;;;1749432;28;20202;-76
2022/04/20 06:28:35;;;;;;;5.05;4.40;;;10.50;97.20;;;;;;1748902;28;20643;-76
2022/04/20 06:29:26;;;;;;;5.10;4.60;;;10.50;97.20;;;;;;1749230;28;20259;-77
2022/04/20 06:30:17;;;;;;;5.10;4.60;;;10.50;97.20;;;;;;1749318;28;20255;-76
2022/04/20 06:31:09;;;;;;;4.45;4.05;;;10.50;97.20;;;;;;1749142;28;20213;-76
2022/04/20 06:32:01;;;;;;;5.15;4.60;;;10.50;97.20;;;;;;1745308;28;20234;-76
2022/04/20 06:32:54;;;;;;;5.18;4.75;;;10.50;97.20;;;;;;1742583;28;20289;-77
2022/04/20 06:33:45;;;;;;;3.90;3.60;;;10.50;97.20;;;;;;1742773;28;20568;-76
2022/04/20 06:34:36;;;;;;;4.70;4.30;;;10.50;97.20;;;;;;1746894;28;20284;-76
2022/04/20 06:35:27;;;;;;;6.28;4.25;;;10.60;97.20;;;;;;1742432;28;20203;-77
2022/04/20 06:36:19;;;;;;;3.93;3.63;;;10.60;97.20;;;;;;1742518;28;20191;-77
2022/04/20 06:37:13;;;;;;;4.47;4.05;;;10.60;97.20;;;;;;1742632;28;20724;-76
2022/04/20 06:38:05;;;;;;;4.38;3.97;;;10.70;97.20;;;;;;1747291;28;20251;-76
2022/04/20 06:38:56;;;;;;;5.05;3.72;;;10.70;97.20;;;;;;1748181;28;20210;-76
2022/04/20 06:39:49;;;;;;;4.20;3.90;;;10.70;97.20;;;;;;1749375;28;20688;-76
2022/04/20 06:40:40;;;;;;;4.47;4.07;;;10.70;97.20;;;;;;1749050;28;20215;-77
2022/04/20 06:41:32;;;;;;;4.18;3.78;;;10.70;97.20;;;;;;1746643;28;20202;-75
2022/04/20 06:42:22;;;;;;;4.30;3.90;;;10.70;97.20;;;;;;1746080;28;20225;-77
2022/04/20 06:43:14;;;;;;;4.50;4.20;;;10.70;97.20;;;;;;1747770;28;20668;-77
2022/04/20 06:44:06;;;;;;;4.15;3.80;;;10.70;97.20;;;;;;1748553;28;20445;-77
2022/04/20 06:44:57;;;;;;;5.45;4.88;;;10.80;97.20;;;;;;1747252;28;20664;-76
2022/04/20 06:45:48;;;;;;;4.47;4.07;;;10.80;97.20;;;;;;1746381;28;20646;-77
2022/04/20 06:46:39;;;;;;;4.90;4.50;;;10.80;97.20;;;;;;1748697;28;20269;-76
2022/04/20 06:47:33;;;;;;;4.60;4.13;;;10.80;97.20;;;;;;1749159;28;20183;-77
2022/04/20 06:48:27;;;;;;;4.00;3.70;;;10.80;97.20;;;;;;1749189;28;20198;-76
2022/04/20 06:49:17;;;;;;;4.30;3.90;;;10.80;97.20;;;;;;1749141;28;20199;-77
2022/04/20 06:50:09;;;;;;;4.47;4.07;;;10.90;97.20;;;;;;1749510;28;20979;-77
2022/04/20 06:51:00;;;;;;;4.45;4.05;;;10.80;97.20;;;;;;1749181;28;20223;-76
2022/04/20 06:58:52;;;;;;;5.28;4.28;;;11.10;97.20;;;;;;1741195;28;20261;-76
2022/04/20 06:59:43;;;;;;;5.00;4.50;;;11.10;97.20;;;;;;1747078;28;20202;-76
2022/04/20 07:00:35;;;;;;;6.13;5.10;;;11.10;97.20;;;;;;1748619;28;20258;-78
2022/04/20 07:01:25;;;;;;;6.63;5.57;;;11.10;97.20;;;;;;1748153;28;20194;-76
2022/04/20 07:02:17;;;;;;;5.70;5.10;;;11.20;97.20;;;;;;1749186;28;20199;-76
2022/04/20 07:03:08;;;;;;;6.90;4.78;;;11.20;97.20;;;;;;1746325;28;20207;-77
2022/04/20 07:04:01;;;;;;;6.10;5.17;;;11.20;97.20;;;;;;1742431;28;20203;-77
2022/04/20 07:04:52;;;;;;;5.65;5.15;;;11.30;97.20;;;;;;1744557;28;20203;-77
2022/04/20 07:05:43;;;;;;;6.13;5.30;;;11.30;97.20;;;;;;1745726;28;20201;-76
2022/04/20 07:06:35;;;;;;;6.53;5.25;;;11.30;97.20;;;;;;1742133;28;20199;-76
2022/04/20 07:07:26;;;;;;;5.80;5.25;;;11.30;97.20;;;;;;1741911;28;20210;-76
2022/04/20 07:08:19;;;;;;;4.17;3.70;;;11.40;97.20;;;;;;1741163;28;20202;-76
2022/04/20 07:09:10;;;;;;;6.35;4.85;;;11.40;97.20;;;;;;1741622;28;20633;-76
2022/04/20 07:10:01;;;;;;;7.95;5.30;;;11.40;97.20;;;;;;1741952;28;20199;-76
2022/04/20 07:10:53;;;;;;;5.63;5.17;;;11.50;97.20;;;;;;1741788;28;20219;-76
2022/04/20 07:11:44;;;;;;;8.13;6.32;;;11.50;97.20;;;;;;1742006;28;20195;-75
2022/04/20 07:12:36;;;;;;;7.20;5.10;;;11.60;97.20;;;;;;1741838;28;20213;-76
2022/04/20 07:13:27;;;;;;;5.82;5.30;;;11.60;97.20;;;;;;1741918;28;20210;-76
2022/04/20 07:14:19;;;;;;;5.63;5.00;;;11.60;97.20;;;;;;1741853;28;20290;-75
2022/04/20 07:15:09;;;;;;;5.80;5.30;;;11.60;97.20;;;;;;1743404;28;20213;-76
2022/04/20 07:16:01;;;;;;;7.13;4.90;;;11.70;97.20;;;;;;1748779;28;20206;-76
2022/04/20 07:16:52;;;;;;;4.82;4.32;;;11.70;97.00;;;;;;1748718;28;20445;-75
2022/04/20 07:17:44;;;;;;;5.67;5.17;;;11.70;96.90;;;;;;1748767;28;20281;-76
2022/04/20 07:18:34;;;;;;;6.03;5.43;;;11.80;97.20;;;;;;1748353;28;20229;-76
2022/04/20 07:19:27;;;;;;;6.40;5.80;;;11.80;97.20;;;;;;1748708;28;20206;-76
2022/04/20 07:20:18;;;;;;;6.88;6.20;;;11.80;97.10;;;;;;1748562;28;20202;-76
2022/04/20 07:21:10;;;;;;;6.10;5.03;;;11.90;97.00;;;;;;1748725;28;20206;-76
2022/04/20 07:22:01;;;;;;;7.35;6.40;;;11.90;96.90;;;;;;1748687;28;20561;-75
2022/04/20 07:22:53;;;;;;;10.17;8.30;;;11.90;96.90;;;;;;1748712;28;20427;-76
2022/04/20 07:23:44;;;;;;;6.03;5.47;;;11.90;96.90;;;;;;1748614;28;20225;-75
2022/04/20 07:24:36;;;;;;;5.77;5.27;;;12.00;96.90;;;;;;1748685;28;20218;-75
2022/04/20 07:25:29;;;;;;;9.20;6.60;;;12.00;97.00;;;;;;1748870;28;20742;-74
2022/04/20 07:26:20;;;;;;;8.77;7.15;;;12.00;96.80;;;;;;1748920;28;20199;-77
2022/04/20 07:27:11;;;;;;;5.28;4.78;;;12.00;96.80;;;;;;1748985;28;20222;-77
2022/04/20 07:28:04;;;;;;;6.00;5.40;;;12.10;96.90;;;;;;1748083;28;20198;-76
2022/04/20 07:28:55;;;;;;;6.50;5.90;;;12.10;96.60;;;;;;1748883;28;20616;-75
2022/04/20 07:29:46;;;;;;;6.88;5.00;;;12.10;96.40;;;;;;1749176;28;20225;-77
2022/04/20 07:30:37;;;;;;;7.07;4.95;;;12.20;96.50;;;;;;1748871;28;20218;-77
2022/04/20 07:31:29;;;;;;;5.03;4.63;;;12.20;96.30;;;;;;1749314;28;20198;-78
2022/04/20 07:32:20;;;;;;;5.28;4.78;;;12.10;96.00;;;;;;1749087;28;20198;-78
2022/04/20 07:33:14;;;;;;;5.10;4.70;;;12.10;96.00;;;;;;1748999;28;20202;-76
2022/04/20 07:34:05;;;;;;;5.32;4.82;;;12.10;96.10;;;;;;1749074;28;20565;-77
2022/04/20 07:34:58;;;;;;;5.07;4.67;;;12.20;96.30;;;;;;1748906;28;20544;-77
2022/04/20 07:35:49;;;;;;;5.18;4.78;;;12.20;96.00;;;;;;1748784;28;20218;-76
2022/04/20 07:36:40;;;;;;;6.03;5.07;;;12.20;96.20;;;;;;1748965;28;20209;-78
2022/04/20 07:37:31;;;;;;;8.90;5.40;;;12.20;96.40;;;;;;1748435;28;20440;-76
2022/04/20 07:38:25;;;;;;;5.90;5.33;;;12.20;96.50;;;;;;1748685;28;20203;-77
2022/04/20 07:39:16;;;;;;;8.85;7.50;;;12.30;96.60;;;;;;1748826;28;20578;-77
2022/04/20 07:40:08;;;;;;;8.50;7.30;;;12.30;97.10;;;;;;1748967;28;20631;-77
2022/04/20 07:41:00;;;;;;;5.60;5.10;;;12.40;97.20;;;;;;1748806;28;20261;-77
2022/04/20 07:41:51;;;;;;;8.30;7.10;;;12.50;97.10;;;;;;1749033;28;20199;-76
2022/04/20 07:42:43;;;;;;;8.13;7.33;;;12.50;97.00;;;;;;1745668;28;20194;-76
2022/04/20 07:43:36;;;;;;;10.35;8.75;;;12.60;96.80;;;;;;1746802;28;20198;-76
2022/04/20 07:44:27;;;;;;;7.93;7.13;;;12.70;97.10;;;;;;1747308;28;20608;-76
2022/04/20 07:45:18;;;;;;;6.10;5.60;;;12.80;97.00;;;;;;1741766;28;20195;-76
2022/04/20 07:46:12;;;;;;;5.65;5.25;;;12.80;96.60;;;;;;1741943;28;20237;-76
2022/04/20 07:47:04;;;;;;;7.28;5.18;;;12.90;96.00;;;;;;1742776;28;20253;-77
2022/04/20 07:47:56;;;;;;;6.45;5.85;;;12.90;95.70;;;;;;1742352;28;20241;-75
2022/04/20 07:48:48;;;;;;;5.85;4.90;;;13.00;95.70;;;;;;1741318;28;20206;-74
2022/04/20 07:50:50;;;;;;;6.20;5.60;;;13.00;95.40;;;;;;1741788;28;20277;-75
2022/04/20 07:51:41;;;;;;;6.38;5.78;;;13.10;95.20;;;;;;1743314;28;20226;-75
2022/04/20 07:52:37;;;;;;;9.30;7.10;;;13.10;95.20;;;;;;1748585;28;20202;-75
2022/04/20 07:53:29;;;;;;;7.15;6.05;;;13.20;95.30;;;;;;1748559;28;20700;-77
2022/04/20 07:54:20;;;;;;;6.10;5.55;;;13.20;95.10;;;;;;1748567;28;20209;-76
2022/04/20 07:55:14;;;;;;;5.90;5.20;;;13.20;94.70;;;;;;1744689;28;20198;-76
2022/04/20 07:56:06;;;;;;;5.43;4.93;;;13.30;94.40;;;;;;1747275;28;20209;-76
2022/04/20 07:56:57;;;;;;;5.45;4.95;;;13.30;94.20;;;;;;1748527;28;20213;-75
2022/04/20 07:57:49;;;;;;;7.30;5.00;;;13.30;94.00;;;;;;1742645;28;20274;-77
2022/04/20 07:58:40;;;;;;;6.32;5.70;;;13.30;93.90;;;;;;1741486;28;20261;-77
2022/04/20 07:59:32;;;;;;;5.13;4.70;;;13.40;93.70;;;;;;1741721;28;20195;-76
2022/04/20 08:00:23;;;;;;;5.70;5.30;;;13.40;93.70;;;;;;1743659;28;20619;-77
2022/04/20 08:01:15;;;;;;;6.47;5.10;;;13.50;93.70;;;;;;1745168;28;20193;-76
2022/04/20 08:02:06;;;;;;;6.97;6.38;;;13.50;93.60;;;;;;1741638;28;20210;-77
2022/04/20 08:03:11;;;;;;;6.30;5.78;;;13.50;93.80;;;;;;1746610;28;20263;-76
2022/04/20 08:04:02;;;;;;;5.82;5.32;;;13.60;94.20;;;;;;1748413;28;20203;-76
2022/04/20 08:04:54;;;;;;;6.10;5.50;;;13.70;93.90;;;;;;1748469;28;20198;-76
2022/04/20 08:05:51;;;;;;;7.47;6.22;;;13.70;93.40;;;;;;1748405;28;20201;-77
2022/04/20 08:06:41;;;;;;;5.90;5.40;;;13.80;93.50;;;;;;1748319;28;20255;-76
2022/04/20 08:07:34;;;;;;;33.93;24.90;;;13.80;93.40;;;;;;1745391;28;20214;-76
2022/04/20 08:08:26;;;;;;;10.48;9.38;;;13.90;93.90;;;;;;1746479;28;20205;-77
2022/04/20 08:09:19;;;;;;;18.63;13.38;;;13.90;94.20;;;;;;1748954;28;20230;-77
2022/04/20 08:10:12;;;;;;;7.97;6.20;;;14.00;94.50;;;;;;1749428;28;20229;-77
2022/04/20 08:11:04;;;;;;;5.07;4.57;;;14.00;93.50;;;;;;1749646;28;20206;-76
2022/04/20 08:11:54;;;;;;;5.70;5.03;;;14.10;92.60;;;;;;1749641;28;20206;-76
2022/04/20 08:12:47;;;;;;;5.37;4.87;;;14.10;92.00;;;;;;1743721;28;20202;-77
2022/04/20 08:14:48;;;;;;;6.07;5.13;;;14.20;91.60;;;;;;1747604;28;20575;-77
2022/04/20 08:15:39;;;;;;;5.53;5.07;;;14.20;92.00;;;;;;1745054;28;20191;-77
2022/04/20 08:16:30;;;;;;;5.40;5.00;;;14.30;91.70;;;;;;1749611;28;20701;-77
2022/04/20 08:17:22;;;;;;;4.87;4.50;;;14.30;91.40;;;;;;1744017;28;20562;-77
2022/04/20 08:18:14;;;;;;;5.75;5.25;;;14.40;91.00;;;;;;1741910;28;20210;-77
2022/04/20 08:19:06;;;;;;;5.90;5.40;;;14.40;90.90;;;;;;1742812;28;20199;-77
2022/04/20 08:19:58;;;;;;;5.97;5.10;;;14.50;90.90;;;;;;1742004;28;20191;-77
2022/04/20 08:20:52;;;;;;;4.90;4.50;;;14.50;90.50;;;;;;1741529;28;20219;-77
2022/04/20 08:21:42;;;;;;;5.63;4.75;;;14.50;90.40;;;;;;1742553;28;20214;-76
2022/04/20 08:22:40;;;;;;;6.77;6.03;;;14.50;89.90;;;;;;1741942;28;20199;-77
2022/04/20 08:23:32;;;;;;;4.68;4.32;;;14.50;89.90;;;;;;1745397;28;20725;-77
2022/04/20 08:24:24;;;;;;;5.63;5.00;;;14.50;90.10;;;;;;1749074;28;20202;-77
2022/04/20 08:25:16;;;;;;;5.28;4.65;;;14.60;90.20;;;;;;1749181;28;20202;-77
2022/04/20 08:26:06;;;;;;;6.13;4.68;;;14.60;90.20;;;;;;1748863;28;20688;-77
2022/04/20 08:26:58;;;;;;;6.93;5.10;;;14.60;90.10;;;;;;1749647;28;20563;-77
2022/04/20 08:27:50;;;;;;;5.43;4.78;;;14.70;90.20;;;;;;1750285;28;20246;-77
2022/04/20 08:28:40;;;;;;;5.38;4.75;;;14.70;90.20;;;;;;1749010;28;20669;-78
2022/04/20 08:29:32;;;;;;;5.30;4.80;;;14.80;90.50;;;;;;1749562;28;20572;-77
2022/04/20 08:30:23;;;;;;;5.18;4.45;;;14.90;90.40;;;;;;1746830;28;20205;-77
2022/04/20 08:31:15;;;;;;;5.20;4.70;;;14.90;90.10;;;;;;1742217;28;20201;-77
2022/04/20 08:32:07;;;;;;;5.90;5.03;;;14.90;89.80;;;;;;1742420;28;20951;-78
2022/04/20 08:32:58;;;;;;;5.00;4.50;;;15.00;89.60;;;;;;1742452;28;20199;-78
2022/04/20 08:33:49;;;;;;;6.63;4.28;;;15.10;89.40;;;;;;1742375;28;20693;-77
2022/04/20 08:34:42;;;;;;;4.17;3.87;;;15.10;88.80;;;;;;1742569;28;20565;-77
2022/04/20 08:35:34;;;;;;;5.65;5.15;;;15.10;88.80;;;;;;1742278;28;20210;-77
2022/04/20 08:36:26;;;;;;;5.15;4.70;;;15.20;88.60;;;;;;1742703;28;20218;-76
2022/04/20 08:37:18;;;;;;;4.90;4.50;;;15.20;88.10;;;;;;1748523;28;20297;-77
2022/04/20 08:38:09;;;;;;;4.78;4.38;;;15.20;88.00;;;;;;1748284;28;20240;-76
2022/04/20 08:39:00;;;;;;;6.30;4.63;;;15.20;88.10;;;;;;1748340;28;20657;-76
2022/04/20 08:39:52;;;;;;;5.00;4.63;;;15.20;87.90;;;;;;1748265;28;20251;-76
2022/04/20 08:40:45;;;;;;;4.50;4.20;;;15.30;88.30;;;;;;1742743;28;20284;-76
2022/04/20 08:41:36;;;;;;;5.25;4.85;;;15.30;88.20;;;;;;1745055;28;20203;-77
2022/04/20 08:42:30;;;;;;;5.30;4.80;;;15.30;87.90;;;;;;1745448;28;20219;-76
2022/04/20 08:43:25;;;;;;;4.82;4.25;;;15.40;88.00;;;;;;1744513;28;20257;-76
2022/04/20 08:44:24;;;;;;;5.43;4.93;;;15.50;88.00;;;;;;1747668;28;20245;-76
2022/04/20 08:45:16;;;;;;;7.68;4.25;;;15.60;88.20;;;;;;1748269;28;20212;-76
2022/04/20 08:46:08;;;;;;;6.30;4.20;;;15.70;87.70;;;;;;1748215;28;20198;-76
2022/04/20 08:47:01;;;;;;;5.82;5.07;;;15.70;87.50;;;;;;1748093;28;20206;-77
2022/04/20 08:47:54;;;;;;;4.65;4.25;;;15.80;87.10;;;;;;1748162;28;20265;-76
2022/04/20 08:48:45;;;;;;;4.93;4.53;;;15.90;87.00;;;;;;1747850;28;20252;-77
2022/04/20 08:49:37;;;;;;;5.95;4.40;;;15.90;86.80;;;;;;1748103;28;20221;-76
2022/04/20 08:50:29;;;;;;;4.90;4.50;;;16.00;86.70;;;;;;1745352;28;20195;-76
2022/04/20 08:51:20;;;;;;;4.55;4.20;;;16.00;86.60;;;;;;1746337;28;20233;-77
2022/04/20 08:53:24;;;;;;;5.18;4.68;;;16.10;86.30;;;;;;1748231;28;20424;-76
2022/04/20 08:54:14;;;;;;;5.20;4.80;;;16.20;86.10;;;;;;1748433;28;20237;-77
2022/04/20 08:55:08;;;;;;;5.00;4.60;;;16.30;85.80;;;;;;1748273;28;20680;-76
2022/04/20 08:57:15;;;;;;;5.15;4.75;;;16.40;85.80;;;;;;1746448;28;20191;-77
2022/04/20 08:58:07;;;;;;;5.10;4.70;;;16.50;85.90;;;;;;1744751;28;20190;-76
2022/04/20 08:59:00;;;;;;;4.38;4.07;;;16.50;85.10;;;;;;1745580;28;20287;-76
2022/04/20 08:59:53;;;;;;;5.10;4.60;;;16.50;84.80;;;;;;1742534;28;20285;-76
2022/04/20 09:00:45;;;;;;;5.00;4.60;;;16.50;84.60;;;;;;1743104;28;20223;-76
2022/04/20 09:01:35;;;;;;;8.15;4.55;;;16.60;84.40;;;;;;1741116;28;20685;-76
2022/04/20 09:02:28;;;;;;;4.93;4.53;;;16.60;84.60;;;;;;1741171;28;20639;-76
2022/04/20 09:03:19;;;;;;;5.10;4.63;;;16.60;84.10;;;;;;1741168;28;20608;-76
2022/04/20 09:04:11;;;;;;;5.13;4.63;;;16.60;83.80;;;;;;1741199;28;20202;-76
2022/04/20 09:05:03;;;;;;;5.03;4.53;;;16.70;83.80;;;;;;1741096;28;20244;-76
2022/04/20 09:05:56;;;;;;;5.00;4.50;;;16.70;83.90;;;;;;1741068;28;20244;-76
2022/04/20 09:06:49;;;;;;;4.10;3.80;;;16.70;83.00;;;;;;1741204;28;20199;-77
2022/04/20 09:07:42;;;;;;;4.75;4.30;;;16.70;83.10;;;;;;1741039;28;20646;-77
2022/04/20 09:08:34;;;;;;;6.63;4.70;;;16.70;82.90;;;;;;1740764;28;20210;-76
2022/04/20 09:09:29;;;;;;;4.75;4.35;;;16.70;83.20;;;;;;1741104;28;20670;-76
2022/04/20 09:10:21;;;;;;;4.50;4.10;;;16.70;83.70;;;;;;1741930;28;20286;-76
2022/04/20 09:11:12;;;;;;;5.28;4.78;;;16.80;83.60;;;;;;1748026;28;20202;-76
2022/04/20 09:12:10;;;;;;;5.53;5.10;;;16.90;84.20;;;;;;1747963;28;20198;-76
2022/04/20 09:13:03;;;;;;;5.35;4.93;;;16.90;85.20;;;;;;1747960;28;20259;-76
2022/04/20 09:13:55;;;;;;;4.57;4.18;;;17.00;85.00;;;;;;1747969;28;20634;-76
2022/04/20 09:14:48;;;;;;;6.03;4.45;;;17.10;84.60;;;;;;1747928;28;20210;-77
2022/04/20 09:15:41;;;;;;;4.10;3.80;;;17.20;83.90;;;;;;1747893;28;20190;-76
2022/04/20 09:16:32;;;;;;;5.40;4.90;;;17.20;84.10;;;;;;1747827;28;20214;-76
2022/04/20 09:17:26;;;;;;;5.17;4.67;;;17.30;83.40;;;;;;1748192;28;20237;-76
2022/04/20 09:18:19;;;;;;;5.05;4.55;;;17.40;83.30;;;;;;1747734;28;20306;-76
2022/04/20 09:19:11;;;;;;;6.00;4.88;;;17.60;83.60;;;;;;1748138;28;20267;-77
2022/04/20 09:20:06;;;;;;;6.18;4.50;;;17.60;83.20;;;;;;1748041;28;20206;-76
2022/04/20 09:21:04;;;;;;;5.47;4.18;;;17.80;83.20;;;;;;1741742;28;20276;-77
2022/04/20 09:21:57;;;;;;;4.22;3.92;;;17.90;82.10;;;;;;1741351;28;20667;-77
2022/04/20 09:23:03;;;;;;;4.03;3.72;;;17.90;81.40;;;;;;1741213;28;20586;-76
2022/04/20 09:24:05;;;;;;;5.20;4.70;;;18.00;81.50;;;;;;1741120;28;20210;-76
2022/04/20 09:24:58;;;;;;;4.60;4.20;;;18.10;82.00;;;;;;1741435;28;20233;-77
2022/04/20 09:25:51;;;;;;;6.25;3.92;;;18.20;82.30;;;;;;1741461;28;20203;-77
2022/04/20 09:26:51;;;;;;;6.13;3.95;;;18.30;81.50;;;;;;1741212;28;20210;-76
2022/04/20 09:27:43;;;;;;;4.68;4.20;;;18.30;80.40;;;;;;1741045;28;20253;-77
2022/04/20 09:28:36;;;;;;;3.92;3.55;;;18.30;79.70;;;;;;1741022;28;20250;-77
2022/04/20 09:29:27;;;;;;;4.20;3.80;;;18.30;79.60;;;;;;1747994;28;20220;-76
2022/04/20 09:30:18;;;;;;;4.50;4.10;;;18.30;79.70;;;;;;1748034;28;20230;-77
2022/04/20 09:31:11;;;;;;;4.33;3.93;;;18.30;79.50;;;;;;1748254;28;20205;-77
2022/04/20 09:32:02;;;;;;;4.38;3.95;;;18.30;79.90;;;;;;1747702;28;20202;-76
2022/04/20 09:32:54;;;;;;;4.30;4.00;;;18.40;80.00;;;;;;1748010;28;20297;-76
2022/04/20 09:33:49;;;;;;;4.25;3.78;;;18.40;79.50;;;;;;1748138;28;20653;-76
2022/04/20 09:34:54;;;;;;;4.10;3.80;;;18.50;79.40;;;;;;1747877;28;20202;-77
2022/04/20 09:35:47;;;;;;;3.75;3.45;;;18.50;79.60;;;;;;1747979;28;20221;-76
2022/04/20 09:36:42;;;;;;;4.40;4.00;;;18.60;79.90;;;;;;1747977;28;20234;-76
2022/04/20 09:37:35;;;;;;;4.93;4.00;;;18.70;79.40;;;;;;1748135;28;20293;-76
2022/04/20 09:38:28;;;;;;;4.10;3.70;;;18.80;79.10;;;;;;1747734;28;20198;-77
2022/04/20 09:39:19;;;;;;;6.97;3.88;;;18.80;79.20;;;;;;1744343;28;20200;-76
2022/04/20 09:40:13;;;;;;;4.40;4.10;;;18.90;79.10;;;;;;1747966;28;20199;-77
2022/04/20 09:41:08;;;;;;;4.82;4.10;;;19.00;79.20;;;;;;1747467;28;20261;-77
2022/04/20 09:42:02;;;;;;;4.30;4.00;;;19.10;79.00;;;;;;1747019;28;20186;-76
2022/04/20 09:43:01;;;;;;;5.10;4.60;;;19.10;78.40;;;;;;1747677;28;20207;-75
2022/04/20 09:44:08;;;;;;;4.28;3.92;;;19.20;78.40;;;;;;1747976;28;20206;-76
2022/04/20 09:45:02;;;;;;;4.28;3.60;;;19.20;78.80;;;;;;1747843;28;20232;-76
2022/04/20 09:46:03;;;;;;;4.78;3.60;;;19.30;78.40;;;;;;1747872;28;20589;-75
2022/04/20 09:49:24;;;;;;;4.82;3.67;;;19.40;77.40;;;;;;1743719;28;20197;-77
2022/04/20 09:50:21;;;;;;;3.90;3.60;;;19.40;76.70;;;;;;1740938;28;20199;-77
2022/04/20 09:51:13;;;;;;;4.07;3.53;;;19.40;76.90;;;;;;1741015;28;20203;-76